sensor_id;sensor_type;location;lat;lon;timestamp;P1;durP1;ratioP1;P2;durP2;ratioP2
59042;SDS011;44826;51.596;5.624;2022-08-19T00:00:04;13.10;;;11.75;;
59042;SDS011;44826;51.596;5.624;2022-08-19T00:02:34;13.70;;;12.30;;
59042;SDS011;44826;51.596;5.624;2022-08-19T00:05:00;12.68;;;11.25;;
59042;SDS011;44826;51.596;5.624;2022-08-19T00:07:26;12.43;;;11.13;;
59042;SDS011;44826;51.596;5.624;2022-08-19T00:09:51;10.82;;;9.55;;
59042;SDS011;44826;51.596;5.624;2022-08-19T00:12:16;10.70;;;8.63;;
59042;SDS011;44826;51.596;5.624;2022-08-19T00:14:42;10.55;;;9.52;;
59042;SDS011;44826;51.596;5.624;2022-08-19T00:17:08;11.68;;;10.18;;
59042;SDS011;44826;51.596;5.624;2022-08-19T00:19:34;12.73;;;11.40;;
59042;SDS011;44826;51.596;5.624;2022-08-19T00:22:00;14.25;;;12.10;;
59042;SDS011;44826;51.596;5.624;2022-08-19T00:24:25;14.40;;;12.88;;
59042;SDS011;44826;51.596;5.624;2022-08-19T00:26:52;15.57;;;13.05;;
59042;SDS011;44826;51.596;5.624;2022-08-19T00:29:18;13.75;;;12.25;;
59042;SDS011;44826;51.596;5.624;2022-08-19T00:31:45;14.77;;;13.15;;
59042;SDS011;44826;51.596;5.624;2022-08-19T00:34:12;14.73;;;13.13;;
59042;SDS011;44826;51.596;5.624;2022-08-19T00:36:38;13.88;;;12.45;;
59042;SDS011;44826;51.596;5.624;2022-08-19T00:39:04;13.75;;;12.30;;
59042;SDS011;44826;51.596;5.624;2022-08-19T00:41:30;13.73;;;12.23;;
59042;SDS011;44826;51.596;5.624;2022-08-19T00:46:29;15.30;;;13.20;;
59042;SDS011;44826;51.596;5.624;2022-08-19T00:48:55;15.07;;;13.05;;
59042;SDS011;44826;51.596;5.624;2022-08-19T00:51:22;15.65;;;13.93;;
59042;SDS011;44826;51.596;5.624;2022-08-19T00:53:51;15.32;;;13.70;;
59042;SDS011;44826;51.596;5.624;2022-08-19T00:56:17;15.38;;;13.68;;
59042;SDS011;44826;51.596;5.624;2022-08-19T00:58:43;17.67;;;14.00;;
59042;SDS011;44826;51.596;5.624;2022-08-19T01:01:09;17.23;;;14.60;;
59042;SDS011;44826;51.596;5.624;2022-08-19T01:03:34;17.88;;;14.70;;
59042;SDS011;44826;51.596;5.624;2022-08-19T01:05:59;16.92;;;14.82;;
59042;SDS011;44826;51.596;5.624;2022-08-19T01:08:25;18.05;;;14.65;;
59042;SDS011;44826;51.596;5.624;2022-08-19T01:10:55;15.57;;;13.90;;
59042;SDS011;44826;51.596;5.624;2022-08-19T01:13:24;16.02;;;13.63;;
59042;SDS011;44826;51.596;5.624;2022-08-19T01:15:57;16.63;;;13.70;;
59042;SDS011;44826;51.596;5.624;2022-08-19T01:18:26;14.85;;;13.25;;
59042;SDS011;44826;51.596;5.624;2022-08-19T01:20:53;13.32;;;11.93;;
59042;SDS011;44826;51.596;5.624;2022-08-19T01:23:21;13.50;;;10.95;;
59042;SDS011;44826;51.596;5.624;2022-08-19T01:26:06;13.23;;;10.80;;
59042;SDS011;44826;51.596;5.624;2022-08-19T01:28:32;15.25;;;12.98;;
59042;SDS011;44826;51.596;5.624;2022-08-19T01:30:57;14.73;;;12.05;;
59042;SDS011;44826;51.596;5.624;2022-08-19T01:33:22;13.73;;;11.95;;
59042;SDS011;44826;51.596;5.624;2022-08-19T01:35:48;15.32;;;12.38;;
59042;SDS011;44826;51.596;5.624;2022-08-19T01:38:25;12.13;;;10.50;;
59042;SDS011;44826;51.596;5.624;2022-08-19T01:40:52;13.30;;;11.00;;
59042;SDS011;44826;51.596;5.624;2022-08-19T01:43:17;14.00;;;12.35;;
59042;SDS011;44826;51.596;5.624;2022-08-19T01:45:44;14.32;;;11.70;;
59042;SDS011;44826;51.596;5.624;2022-08-19T01:48:10;16.92;;;12.18;;
59042;SDS011;44826;51.596;5.624;2022-08-19T01:50:36;12.23;;;10.80;;
59042;SDS011;44826;51.596;5.624;2022-08-19T01:53:02;12.65;;;10.63;;
59042;SDS011;44826;51.596;5.624;2022-08-19T01:55:30;12.63;;;10.57;;
59042;SDS011;44826;51.596;5.624;2022-08-19T01:57:57;11.68;;;10.30;;
59042;SDS011;44826;51.596;5.624;2022-08-19T02:00:25;12.48;;;10.88;;
59042;SDS011;44826;51.596;5.624;2022-08-19T02:02:52;10.63;;;9.52;;
59042;SDS011;44826;51.596;5.624;2022-08-19T02:05:18;10.95;;;9.85;;
59042;SDS011;44826;51.596;5.624;2022-08-19T02:07:43;11.18;;;9.13;;
59042;SDS011;44826;51.596;5.624;2022-08-19T02:10:11;12.73;;;10.70;;
59042;SDS011;44826;51.596;5.624;2022-08-19T02:12:39;13.63;;;12.23;;
59042;SDS011;44826;51.596;5.624;2022-08-19T02:15:05;15.40;;;11.93;;
59042;SDS011;44826;51.596;5.624;2022-08-19T02:17:31;14.93;;;12.98;;
59042;SDS011;44826;51.596;5.624;2022-08-19T02:19:57;14.35;;;12.75;;
59042;SDS011;44826;51.596;5.624;2022-08-19T02:22:23;17.85;;;13.32;;
59042;SDS011;44826;51.596;5.624;2022-08-19T02:24:50;18.65;;;13.10;;
59042;SDS011;44826;51.596;5.624;2022-08-19T02:27:16;17.33;;;13.60;;
59042;SDS011;44826;51.596;5.624;2022-08-19T02:29:41;16.65;;;13.27;;
59042;SDS011;44826;51.596;5.624;2022-08-19T02:32:07;18.13;;;13.32;;
59042;SDS011;44826;51.596;5.624;2022-08-19T02:34:33;17.60;;;12.73;;
59042;SDS011;44826;51.596;5.624;2022-08-19T02:36:58;16.00;;;13.07;;
59042;SDS011;44826;51.596;5.624;2022-08-19T02:39:24;15.52;;;13.10;;
59042;SDS011;44826;51.596;5.624;2022-08-19T02:41:49;15.00;;;12.40;;
59042;SDS011;44826;51.596;5.624;2022-08-19T02:44:15;12.68;;;10.30;;
59042;SDS011;44826;51.596;5.624;2022-08-19T02:46:41;14.85;;;10.93;;
59042;SDS011;44826;51.596;5.624;2022-08-19T02:49:07;13.82;;;10.95;;
59042;SDS011;44826;51.596;5.624;2022-08-19T02:51:34;10.68;;;9.43;;
59042;SDS011;44826;51.596;5.624;2022-08-19T02:54:02;9.40;;;8.20;;
59042;SDS011;44826;51.596;5.624;2022-08-19T02:56:29;10.10;;;8.15;;
59042;SDS011;44826;51.596;5.624;2022-08-19T02:58:56;10.48;;;8.65;;
59042;SDS011;44826;51.596;5.624;2022-08-19T03:03:52;10.50;;;9.10;;
59042;SDS011;44826;51.596;5.624;2022-08-19T03:06:17;9.63;;;8.45;;
59042;SDS011;44826;51.596;5.624;2022-08-19T03:08:44;18.17;;;9.20;;
59042;SDS011;44826;51.596;5.624;2022-08-19T03:13:44;12.82;;;11.23;;
59042;SDS011;44826;51.596;5.624;2022-08-19T03:16:11;12.35;;;10.73;;
59042;SDS011;44826;51.596;5.624;2022-08-19T03:18:37;14.77;;;11.55;;
59042;SDS011;44826;51.596;5.624;2022-08-19T03:21:02;12.57;;;10.25;;
59042;SDS011;44826;51.596;5.624;2022-08-19T03:23:28;13.80;;;10.95;;
59042;SDS011;44826;51.596;5.624;2022-08-19T03:25:53;13.02;;;10.18;;
59042;SDS011;44826;51.596;5.624;2022-08-19T03:28:19;12.40;;;10.60;;
59042;SDS011;44826;51.596;5.624;2022-08-19T03:31:03;21.00;;;11.00;;
59042;SDS011;44826;51.596;5.624;2022-08-19T03:33:31;11.52;;;9.82;;
59042;SDS011;44826;51.596;5.624;2022-08-19T03:36:08;14.70;;;10.55;;
59042;SDS011;44826;51.596;5.624;2022-08-19T03:38:36;12.70;;;10.05;;
59042;SDS011;44826;51.596;5.624;2022-08-19T03:41:04;11.80;;;10.27;;
59042;SDS011;44826;51.596;5.624;2022-08-19T03:43:32;11.75;;;9.00;;
59042;SDS011;44826;51.596;5.624;2022-08-19T03:46:03;15.25;;;10.32;;
59042;SDS011;44826;51.596;5.624;2022-08-19T03:48:31;13.52;;;9.85;;
59042;SDS011;44826;51.596;5.624;2022-08-19T03:50:57;14.57;;;10.10;;
59042;SDS011;44826;51.596;5.624;2022-08-19T03:53:24;12.43;;;9.38;;
59042;SDS011;44826;51.596;5.624;2022-08-19T03:55:50;9.63;;;8.05;;
59042;SDS011;44826;51.596;5.624;2022-08-19T03:58:16;12.18;;;8.60;;
59042;SDS011;44826;51.596;5.624;2022-08-19T04:00:42;10.02;;;8.25;;
59042;SDS011;44826;51.596;5.624;2022-08-19T04:03:08;10.85;;;8.55;;
59042;SDS011;44826;51.596;5.624;2022-08-19T04:05:33;12.48;;;9.15;;
59042;SDS011;44826;51.596;5.624;2022-08-19T04:07:59;13.18;;;10.10;;
59042;SDS011;44826;51.596;5.624;2022-08-19T04:10:25;16.63;;;11.63;;
59042;SDS011;44826;51.596;5.624;2022-08-19T04:12:51;16.35;;;11.32;;
59042;SDS011;44826;51.596;5.624;2022-08-19T04:15:16;16.05;;;11.70;;
59042;SDS011;44826;51.596;5.624;2022-08-19T04:17:42;14.05;;;11.18;;
59042;SDS011;44826;51.596;5.624;2022-08-19T04:20:07;16.30;;;11.27;;
59042;SDS011;44826;51.596;5.624;2022-08-19T04:22:33;14.77;;;11.77;;
59042;SDS011;44826;51.596;5.624;2022-08-19T04:24:58;14.63;;;11.38;;
59042;SDS011;44826;51.596;5.624;2022-08-19T04:27:23;15.70;;;11.80;;
59042;SDS011;44826;51.596;5.624;2022-08-19T04:29:48;14.52;;;10.48;;
59042;SDS011;44826;51.596;5.624;2022-08-19T04:32:14;13.50;;;10.23;;
59042;SDS011;44826;51.596;5.624;2022-08-19T04:34:40;14.52;;;10.23;;
59042;SDS011;44826;51.596;5.624;2022-08-19T04:37:07;19.15;;;12.18;;
59042;SDS011;44826;51.596;5.624;2022-08-19T04:39:36;14.85;;;11.20;;
59042;SDS011;44826;51.596;5.624;2022-08-19T04:42:21;13.77;;;10.85;;
59042;SDS011;44826;51.596;5.624;2022-08-19T04:45:06;15.77;;;11.98;;
59042;SDS011;44826;51.596;5.624;2022-08-19T04:47:37;18.35;;;13.10;;
59042;SDS011;44826;51.596;5.624;2022-08-19T04:50:04;17.17;;;12.13;;
59042;SDS011;44826;51.596;5.624;2022-08-19T04:52:30;15.63;;;12.18;;
59042;SDS011;44826;51.596;5.624;2022-08-19T04:54:57;17.58;;;13.13;;
59042;SDS011;44826;51.596;5.624;2022-08-19T04:57:23;25.00;;;13.57;;
59042;SDS011;44826;51.596;5.624;2022-08-19T04:59:49;20.67;;;13.05;;
59042;SDS011;44826;51.596;5.624;2022-08-19T05:02:18;17.40;;;13.02;;
59042;SDS011;44826;51.596;5.624;2022-08-19T05:04:43;20.45;;;13.30;;
59042;SDS011;44826;51.596;5.624;2022-08-19T05:07:08;19.85;;;13.75;;
59042;SDS011;44826;51.596;5.624;2022-08-19T05:09:34;20.85;;;13.93;;
59042;SDS011;44826;51.596;5.624;2022-08-19T05:12:00;19.48;;;14.23;;
59042;SDS011;44826;51.596;5.624;2022-08-19T05:14:25;18.60;;;13.38;;
59042;SDS011;44826;51.596;5.624;2022-08-19T05:16:51;21.98;;;14.57;;
59042;SDS011;44826;51.596;5.624;2022-08-19T05:19:16;24.77;;;15.25;;
59042;SDS011;44826;51.596;5.624;2022-08-19T05:22:00;19.08;;;14.27;;
59042;SDS011;44826;51.596;5.624;2022-08-19T05:24:44;20.35;;;15.75;;
59042;SDS011;44826;51.596;5.624;2022-08-19T05:27:09;22.35;;;16.17;;
59042;SDS011;44826;51.596;5.624;2022-08-19T05:29:34;26.83;;;17.08;;
59042;SDS011;44826;51.596;5.624;2022-08-19T05:32:01;25.95;;;18.00;;
59042;SDS011;44826;51.596;5.624;2022-08-19T05:34:29;24.65;;;17.80;;
59042;SDS011;44826;51.596;5.624;2022-08-19T05:36:56;26.55;;;19.42;;
59042;SDS011;44826;51.596;5.624;2022-08-19T05:39:24;26.23;;;19.38;;
59042;SDS011;44826;51.596;5.624;2022-08-19T05:41:53;29.58;;;18.95;;
59042;SDS011;44826;51.596;5.624;2022-08-19T05:44:22;26.10;;;18.20;;
59042;SDS011;44826;51.596;5.624;2022-08-19T05:46:51;26.98;;;19.58;;
59042;SDS011;44826;51.596;5.624;2022-08-19T05:49:18;27.10;;;18.42;;
59042;SDS011;44826;51.596;5.624;2022-08-19T05:51:44;27.70;;;18.48;;
59042;SDS011;44826;51.596;5.624;2022-08-19T05:54:10;26.83;;;19.58;;
59042;SDS011;44826;51.596;5.624;2022-08-19T05:56:38;29.42;;;20.08;;
59042;SDS011;44826;51.596;5.624;2022-08-19T05:59:05;28.88;;;20.33;;
59042;SDS011;44826;51.596;5.624;2022-08-19T06:01:35;32.08;;;21.70;;
59042;SDS011;44826;51.596;5.624;2022-08-19T06:04:02;34.25;;;22.55;;
59042;SDS011;44826;51.596;5.624;2022-08-19T06:06:28;36.03;;;22.17;;
59042;SDS011;44826;51.596;5.624;2022-08-19T06:08:54;37.35;;;23.95;;
59042;SDS011;44826;51.596;5.624;2022-08-19T06:11:20;36.83;;;23.40;;
59042;SDS011;44826;51.596;5.624;2022-08-19T06:13:50;37.03;;;23.15;;
59042;SDS011;44826;51.596;5.624;2022-08-19T06:16:18;39.28;;;25.55;;
59042;SDS011;44826;51.596;5.624;2022-08-19T06:18:45;39.72;;;25.45;;
59042;SDS011;44826;51.596;5.624;2022-08-19T06:21:11;42.47;;;25.45;;
59042;SDS011;44826;51.596;5.624;2022-08-19T06:23:36;42.83;;;25.33;;
59042;SDS011;44826;51.596;5.624;2022-08-19T06:26:01;44.40;;;25.38;;
59042;SDS011;44826;51.596;5.624;2022-08-19T06:28:27;45.10;;;25.83;;
59042;SDS011;44826;51.596;5.624;2022-08-19T06:30:52;41.97;;;26.20;;
59042;SDS011;44826;51.596;5.624;2022-08-19T06:33:17;43.17;;;26.48;;
59042;SDS011;44826;51.596;5.624;2022-08-19T06:35:42;44.55;;;26.08;;
59042;SDS011;44826;51.596;5.624;2022-08-19T06:38:08;41.38;;;26.00;;
59042;SDS011;44826;51.596;5.624;2022-08-19T06:40:34;48.08;;;26.60;;
59042;SDS011;44826;51.596;5.624;2022-08-19T06:43:00;42.28;;;25.73;;
59042;SDS011;44826;51.596;5.624;2022-08-19T06:45:27;45.97;;;25.98;;
59042;SDS011;44826;51.596;5.624;2022-08-19T06:47:52;40.47;;;25.35;;
59042;SDS011;44826;51.596;5.624;2022-08-19T06:50:21;41.35;;;25.55;;
59042;SDS011;44826;51.596;5.624;2022-08-19T06:52:47;42.25;;;26.42;;
59042;SDS011;44826;51.596;5.624;2022-08-19T06:55:12;43.63;;;25.95;;
59042;SDS011;44826;51.596;5.624;2022-08-19T06:57:38;43.42;;;25.48;;
59042;SDS011;44826;51.596;5.624;2022-08-19T07:00:03;42.40;;;26.35;;
59042;SDS011;44826;51.596;5.624;2022-08-19T07:02:31;41.75;;;24.65;;
59042;SDS011;44826;51.596;5.624;2022-08-19T07:04:56;44.42;;;26.25;;
59042;SDS011;44826;51.596;5.624;2022-08-19T07:07:23;41.38;;;24.95;;
59042;SDS011;44826;51.596;5.624;2022-08-19T07:09:49;43.13;;;26.42;;
59042;SDS011;44826;51.596;5.624;2022-08-19T07:12:15;41.22;;;25.48;;
59042;SDS011;44826;51.596;5.624;2022-08-19T07:14:41;40.28;;;24.50;;
59042;SDS011;44826;51.596;5.624;2022-08-19T07:17:08;41.80;;;25.00;;
59042;SDS011;44826;51.596;5.624;2022-08-19T07:19:35;38.90;;;24.13;;
59042;SDS011;44826;51.596;5.624;2022-08-19T07:22:03;39.40;;;25.20;;
59042;SDS011;44826;51.596;5.624;2022-08-19T07:24:30;39.83;;;24.48;;
59042;SDS011;44826;51.596;5.624;2022-08-19T07:26:58;41.30;;;24.70;;
59042;SDS011;44826;51.596;5.624;2022-08-19T07:29:25;40.47;;;24.13;;
59042;SDS011;44826;51.596;5.624;2022-08-19T07:31:51;43.63;;;24.98;;
59042;SDS011;44826;51.596;5.624;2022-08-19T07:34:21;38.65;;;22.50;;
59042;SDS011;44826;51.596;5.624;2022-08-19T07:36:48;37.38;;;23.40;;
59042;SDS011;44826;51.596;5.624;2022-08-19T07:39:15;36.17;;;22.15;;
59042;SDS011;44826;51.596;5.624;2022-08-19T07:41:45;37.70;;;21.23;;
59042;SDS011;44826;51.596;5.624;2022-08-19T07:44:11;35.40;;;21.23;;
59042;SDS011;44826;51.596;5.624;2022-08-19T07:46:39;35.88;;;21.77;;
59042;SDS011;44826;51.596;5.624;2022-08-19T07:49:07;34.08;;;21.35;;
59042;SDS011;44826;51.596;5.624;2022-08-19T07:51:33;37.17;;;21.65;;
59042;SDS011;44826;51.596;5.624;2022-08-19T07:53:59;37.03;;;22.65;;
59042;SDS011;44826;51.596;5.624;2022-08-19T07:56:25;36.70;;;23.42;;
59042;SDS011;44826;51.596;5.624;2022-08-19T07:58:51;35.80;;;23.98;;
59042;SDS011;44826;51.596;5.624;2022-08-19T08:01:19;35.38;;;22.35;;
59042;SDS011;44826;51.596;5.624;2022-08-19T08:03:47;36.30;;;23.35;;
59042;SDS011;44826;51.596;5.624;2022-08-19T08:06:40;34.03;;;22.92;;
59042;SDS011;44826;51.596;5.624;2022-08-19T08:09:39;35.90;;;22.77;;
59042;SDS011;44826;51.596;5.624;2022-08-19T08:14:38;33.38;;;22.80;;
59042;SDS011;44826;51.596;5.624;2022-08-19T08:17:06;36.30;;;21.93;;
59042;SDS011;44826;51.596;5.624;2022-08-19T08:19:33;36.00;;;22.77;;
59042;SDS011;44826;51.596;5.624;2022-08-19T08:21:59;36.58;;;22.40;;
59042;SDS011;44826;51.596;5.624;2022-08-19T08:24:27;33.90;;;22.55;;
59042;SDS011;44826;51.596;5.624;2022-08-19T08:26:55;36.60;;;23.02;;
59042;SDS011;44826;51.596;5.624;2022-08-19T08:29:22;34.33;;;23.35;;
59042;SDS011;44826;51.596;5.624;2022-08-19T08:31:47;34.75;;;23.10;;
59042;SDS011;44826;51.596;5.624;2022-08-19T08:34:13;34.13;;;22.65;;
59042;SDS011;44826;51.596;5.624;2022-08-19T08:36:40;37.30;;;24.02;;
59042;SDS011;44826;51.596;5.624;2022-08-19T08:39:11;33.10;;;22.08;;
59042;SDS011;44826;51.596;5.624;2022-08-19T08:44:20;34.08;;;22.95;;
59042;SDS011;44826;51.596;5.624;2022-08-19T08:46:57;33.10;;;22.67;;
59042;SDS011;44826;51.596;5.624;2022-08-19T08:49:41;35.85;;;22.42;;
59042;SDS011;44826;51.596;5.624;2022-08-19T08:54:49;35.33;;;23.17;;
59042;SDS011;44826;51.596;5.624;2022-08-19T09:00:15;33.47;;;22.67;;
59042;SDS011;44826;51.596;5.624;2022-08-19T09:02:43;32.35;;;22.80;;
59042;SDS011;44826;51.596;5.624;2022-08-19T09:05:09;35.47;;;24.50;;
59042;SDS011;44826;51.596;5.624;2022-08-19T09:15:46;34.97;;;23.95;;
59042;SDS011;44826;51.596;5.624;2022-08-19T09:18:17;32.85;;;23.25;;
59042;SDS011;44826;51.596;5.624;2022-08-19T09:20:43;33.15;;;23.60;;
59042;SDS011;44826;51.596;5.624;2022-08-19T09:23:08;34.85;;;22.67;;
59042;SDS011;44826;51.596;5.624;2022-08-19T09:25:35;31.02;;;22.88;;
59042;SDS011;44826;51.596;5.624;2022-08-19T09:28:01;34.42;;;24.52;;
59042;SDS011;44826;51.596;5.624;2022-08-19T09:30:31;30.90;;;22.90;;
59042;SDS011;44826;51.596;5.624;2022-08-19T09:32:58;34.63;;;21.98;;
59042;SDS011;44826;51.596;5.624;2022-08-19T09:35:25;29.65;;;21.83;;
59042;SDS011;44826;51.596;5.624;2022-08-19T09:37:52;32.35;;;22.38;;
59042;SDS011;44826;51.596;5.624;2022-08-19T09:40:18;29.45;;;21.10;;
59042;SDS011;44826;51.596;5.624;2022-08-19T09:42:45;29.02;;;21.23;;
59042;SDS011;44826;51.596;5.624;2022-08-19T09:45:14;26.45;;;19.10;;
59042;SDS011;44826;51.596;5.624;2022-08-19T09:47:41;27.05;;;19.55;;
59042;SDS011;44826;51.596;5.624;2022-08-19T09:50:07;27.02;;;19.02;;
59042;SDS011;44826;51.596;5.624;2022-08-19T09:52:35;26.08;;;18.88;;
59042;SDS011;44826;51.596;5.624;2022-08-19T09:55:02;25.30;;;18.80;;
59042;SDS011;44826;51.596;5.624;2022-08-19T09:57:32;26.00;;;18.98;;
59042;SDS011;44826;51.596;5.624;2022-08-19T09:59:58;27.50;;;19.92;;
59042;SDS011;44826;51.596;5.624;2022-08-19T10:02:23;26.80;;;19.83;;
59042;SDS011;44826;51.596;5.624;2022-08-19T10:04:49;26.08;;;20.15;;
59042;SDS011;44826;51.596;5.624;2022-08-19T10:07:33;28.83;;;19.98;;
59042;SDS011;44826;51.596;5.624;2022-08-19T10:10:00;27.70;;;19.95;;
59042;SDS011;44826;51.596;5.624;2022-08-19T10:12:26;26.17;;;19.40;;
59042;SDS011;44826;51.596;5.624;2022-08-19T10:14:51;28.08;;;20.25;;
59042;SDS011;44826;51.596;5.624;2022-08-19T10:17:18;27.08;;;20.00;;
59042;SDS011;44826;51.596;5.624;2022-08-19T10:19:43;28.35;;;19.55;;
59042;SDS011;44826;51.596;5.624;2022-08-19T10:22:09;29.35;;;20.35;;
59042;SDS011;44826;51.596;5.624;2022-08-19T10:24:39;28.45;;;20.45;;
59042;SDS011;44826;51.596;5.624;2022-08-19T10:27:05;29.40;;;21.13;;
59042;SDS011;44826;51.596;5.624;2022-08-19T10:29:31;28.50;;;20.35;;
59042;SDS011;44826;51.596;5.624;2022-08-19T10:31:59;26.95;;;20.30;;
59042;SDS011;44826;51.596;5.624;2022-08-19T10:34:27;25.88;;;18.52;;
59042;SDS011;44826;51.596;5.624;2022-08-19T10:36:53;27.00;;;19.73;;
59042;SDS011;44826;51.596;5.624;2022-08-19T10:39:19;29.00;;;20.73;;
59042;SDS011;44826;51.596;5.624;2022-08-19T10:41:44;29.48;;;21.25;;
59042;SDS011;44826;51.596;5.624;2022-08-19T10:44:10;30.40;;;21.85;;
59042;SDS011;44826;51.596;5.624;2022-08-19T10:46:38;29.15;;;21.13;;
59042;SDS011;44826;51.596;5.624;2022-08-19T10:49:07;30.08;;;21.65;;
59042;SDS011;44826;51.596;5.624;2022-08-19T10:51:33;31.58;;;21.98;;
59042;SDS011;44826;51.596;5.624;2022-08-19T10:54:18;30.83;;;21.23;;
59042;SDS011;44826;51.596;5.624;2022-08-19T10:56:43;29.27;;;21.85;;
59042;SDS011;44826;51.596;5.624;2022-08-19T11:01:52;27.20;;;19.67;;
59042;SDS011;44826;51.596;5.624;2022-08-19T11:04:19;27.35;;;20.05;;
59042;SDS011;44826;51.596;5.624;2022-08-19T11:06:46;28.27;;;20.17;;
59042;SDS011;44826;51.596;5.624;2022-08-19T11:09:16;29.23;;;20.38;;
59042;SDS011;44826;51.596;5.624;2022-08-19T11:11:43;28.15;;;20.23;;
59042;SDS011;44826;51.596;5.624;2022-08-19T11:14:10;27.13;;;19.75;;
59042;SDS011;44826;51.596;5.624;2022-08-19T11:16:38;31.40;;;20.45;;
59042;SDS011;44826;51.596;5.624;2022-08-19T11:19:04;27.55;;;19.10;;
59042;SDS011;44826;51.596;5.624;2022-08-19T11:21:32;31.13;;;21.05;;
59042;SDS011;44826;51.596;5.624;2022-08-19T11:23:59;28.88;;;20.73;;
59042;SDS011;44826;51.596;5.624;2022-08-19T11:26:28;28.73;;;20.75;;
59042;SDS011;44826;51.596;5.624;2022-08-19T11:28:55;28.42;;;20.58;;
59042;SDS011;44826;51.596;5.624;2022-08-19T11:31:23;26.80;;;20.13;;
59042;SDS011;44826;51.596;5.624;2022-08-19T11:33:51;29.45;;;20.88;;
59042;SDS011;44826;51.596;5.624;2022-08-19T11:36:18;26.38;;;19.58;;
59042;SDS011;44826;51.596;5.624;2022-08-19T11:38:45;28.08;;;19.75;;
59042;SDS011;44826;51.596;5.624;2022-08-19T11:41:13;25.92;;;18.33;;
59042;SDS011;44826;51.596;5.624;2022-08-19T11:43:39;25.77;;;17.85;;
59042;SDS011;44826;51.596;5.624;2022-08-19T11:46:05;22.38;;;16.65;;
59042;SDS011;44826;51.596;5.624;2022-08-19T11:48:33;23.58;;;17.63;;
59042;SDS011;44826;51.596;5.624;2022-08-19T11:50:59;23.95;;;17.40;;
59042;SDS011;44826;51.596;5.624;2022-08-19T11:53:24;25.00;;;18.77;;
59042;SDS011;44826;51.596;5.624;2022-08-19T11:55:50;23.25;;;16.52;;
59042;SDS011;44826;51.596;5.624;2022-08-19T12:00:46;20.77;;;15.10;;
59042;SDS011;44826;51.596;5.624;2022-08-19T12:03:12;24.27;;;16.80;;
59042;SDS011;44826;51.596;5.624;2022-08-19T12:05:38;26.58;;;17.08;;
59042;SDS011;44826;51.596;5.624;2022-08-19T12:08:05;26.77;;;17.75;;
59042;SDS011;44826;51.596;5.624;2022-08-19T12:10:30;24.08;;;17.77;;
59042;SDS011;44826;51.596;5.624;2022-08-19T12:12:56;27.35;;;18.63;;
59042;SDS011;44826;51.596;5.624;2022-08-19T12:15:21;25.85;;;18.67;;
59042;SDS011;44826;51.596;5.624;2022-08-19T12:17:46;24.50;;;18.20;;
59042;SDS011;44826;51.596;5.624;2022-08-19T12:20:12;24.25;;;18.13;;
59042;SDS011;44826;51.596;5.624;2022-08-19T12:22:40;22.10;;;18.10;;
59042;SDS011;44826;51.596;5.624;2022-08-19T12:25:07;27.38;;;18.95;;
59042;SDS011;44826;51.596;5.624;2022-08-19T12:27:32;25.60;;;18.98;;
59042;SDS011;44826;51.596;5.624;2022-08-19T12:29:58;24.88;;;17.98;;
59042;SDS011;44826;51.596;5.624;2022-08-19T12:32:25;24.67;;;17.42;;
59042;SDS011;44826;51.596;5.624;2022-08-19T12:34:51;23.08;;;16.92;;
59042;SDS011;44826;51.596;5.624;2022-08-19T12:37:16;19.55;;;15.35;;
59042;SDS011;44826;51.596;5.624;2022-08-19T12:39:42;18.35;;;14.15;;
59042;SDS011;44826;51.596;5.624;2022-08-19T12:42:11;18.15;;;14.38;;
59042;SDS011;44826;51.596;5.624;2022-08-19T12:44:38;20.60;;;14.38;;
59042;SDS011;44826;51.596;5.624;2022-08-19T12:47:05;17.88;;;13.98;;
59042;SDS011;44826;51.596;5.624;2022-08-19T12:49:32;18.58;;;13.32;;
59042;SDS011;44826;51.596;5.624;2022-08-19T12:52:02;19.57;;;13.40;;
59042;SDS011;44826;51.596;5.624;2022-08-19T12:54:29;17.40;;;12.40;;
59042;SDS011;44826;51.596;5.624;2022-08-19T12:56:55;18.48;;;12.75;;
59042;SDS011;44826;51.596;5.624;2022-08-19T12:59:21;18.05;;;12.85;;
59042;SDS011;44826;51.596;5.624;2022-08-19T13:01:47;18.95;;;11.88;;
59042;SDS011;44826;51.596;5.624;2022-08-19T13:04:12;18.27;;;12.93;;
59042;SDS011;44826;51.596;5.624;2022-08-19T13:06:37;17.25;;;12.20;;
59042;SDS011;44826;51.596;5.624;2022-08-19T13:09:03;18.73;;;12.75;;
59042;SDS011;44826;51.596;5.624;2022-08-19T13:11:29;18.65;;;12.07;;
59042;SDS011;44826;51.596;5.624;2022-08-19T13:13:57;16.05;;;12.32;;
59042;SDS011;44826;51.596;5.624;2022-08-19T13:16:23;17.80;;;12.82;;
59042;SDS011;44826;51.596;5.624;2022-08-19T13:18:50;16.25;;;12.38;;
59042;SDS011;44826;51.596;5.624;2022-08-19T13:21:19;20.10;;;13.35;;
59042;SDS011;44826;51.596;5.624;2022-08-19T13:26:15;17.70;;;12.77;;
59042;SDS011;44826;51.596;5.624;2022-08-19T13:28:42;20.17;;;14.50;;
59042;SDS011;44826;51.596;5.624;2022-08-19T13:31:28;23.63;;;15.68;;
59042;SDS011;44826;51.596;5.624;2022-08-19T13:34:14;22.08;;;15.98;;
59042;SDS011;44826;51.596;5.624;2022-08-19T13:36:40;23.50;;;15.18;;
59042;SDS011;44826;51.596;5.624;2022-08-19T13:39:06;21.63;;;15.88;;
59042;SDS011;44826;51.596;5.624;2022-08-19T13:41:33;21.83;;;15.30;;
59042;SDS011;44826;51.596;5.624;2022-08-19T13:44:00;23.15;;;15.25;;
59042;SDS011;44826;51.596;5.624;2022-08-19T13:46:26;20.48;;;15.48;;
59042;SDS011;44826;51.596;5.624;2022-08-19T13:48:52;23.15;;;15.77;;
59042;SDS011;44826;51.596;5.624;2022-08-19T13:51:17;21.23;;;15.45;;
59042;SDS011;44826;51.596;5.624;2022-08-19T13:53:43;24.30;;;16.33;;
59042;SDS011;44826;51.596;5.624;2022-08-19T13:56:12;23.13;;;15.55;;
59042;SDS011;44826;51.596;5.624;2022-08-19T13:58:42;22.83;;;15.15;;
59042;SDS011;44826;51.596;5.624;2022-08-19T14:01:08;22.05;;;15.38;;
59042;SDS011;44826;51.596;5.624;2022-08-19T14:03:34;25.42;;;16.25;;
59042;SDS011;44826;51.596;5.624;2022-08-19T14:06:00;25.15;;;15.73;;
59042;SDS011;44826;51.596;5.624;2022-08-19T14:08:27;22.20;;;15.85;;
59042;SDS011;44826;51.596;5.624;2022-08-19T14:10:53;23.30;;;15.35;;
59042;SDS011;44826;51.596;5.624;2022-08-19T14:13:20;21.50;;;13.95;;
59042;SDS011;44826;51.596;5.624;2022-08-19T14:15:46;20.77;;;14.77;;
59042;SDS011;44826;51.596;5.624;2022-08-19T14:18:12;21.27;;;13.90;;
59042;SDS011;44826;51.596;5.624;2022-08-19T14:20:39;18.92;;;14.00;;
59042;SDS011;44826;51.596;5.624;2022-08-19T14:23:04;20.55;;;13.30;;
59042;SDS011;44826;51.596;5.624;2022-08-19T14:25:30;21.38;;;12.80;;
59042;SDS011;44826;51.596;5.624;2022-08-19T14:27:57;17.75;;;11.43;;
59042;SDS011;44826;51.596;5.624;2022-08-19T14:30:24;17.42;;;12.15;;
59042;SDS011;44826;51.596;5.624;2022-08-19T14:32:52;15.68;;;11.02;;
59042;SDS011;44826;51.596;5.624;2022-08-19T14:35:19;16.65;;;11.68;;
59042;SDS011;44826;51.596;5.624;2022-08-19T14:37:47;14.90;;;10.57;;
59042;SDS011;44826;51.596;5.624;2022-08-19T14:40:14;21.85;;;10.57;;
59042;SDS011;44826;51.596;5.624;2022-08-19T14:42:42;14.10;;;9.88;;
59042;SDS011;44826;51.596;5.624;2022-08-19T14:45:09;14.32;;;9.75;;
59042;SDS011;44826;51.596;5.624;2022-08-19T14:47:36;15.10;;;10.35;;
59042;SDS011;44826;51.596;5.624;2022-08-19T14:50:03;14.68;;;10.32;;
59042;SDS011;44826;51.596;5.624;2022-08-19T14:52:31;14.43;;;9.57;;
59042;SDS011;44826;51.596;5.624;2022-08-19T14:54:56;15.25;;;9.48;;
59042;SDS011;44826;51.596;5.624;2022-08-19T14:57:22;13.43;;;9.13;;